Millinocket, Maine
Current Conditions -  °F | °C
As of 5:00 PM on Sunday 23 Nov 2014 (Local Time) from KMLT Reporting Station
Overcast Overcast  
Wind Chill: 41°   Ceiling: 2900
Heat Index: 41°   Visibility: 10mi
Dew Point: 35°   Wind: 0mph
Humidity: 79%   Direction: NA
Pressure: 30.1"   Gusts: NA
Location:  45.66°N, 68.71°W
Report Text: KMLT 232200Z AUTO 00000KT 10SM FEW023 OVC029 05/02 A3010 RMK AO2 T00500017
Loading
Personal Weather Stations






























Interactive Weather Map New forecast layout! Learn more

10-Day Weather Forecast

Advertisements
Track Severe Weather on mobile